Other Surface Observations
Issued by NWS Great Falls, MT

Home | Current Version | Previous Version | Text Only | Print | Product List | Glossary On
Versions: 1 2 3 4 5 6 7 8 9 10 11 12 13 14 15 16 17 18 19 20 21 22 23 24 25 26 27 28 29 30 31 32 33 34 35 36 37 38 39 40 41 42 43 44 45 46 47 48 49 50
000
SXUS55 KTFX 240144
OSOTFX

AREA AWOS OBSERVATIONS
NATIONAL WEATHER SERVICE GREAT FALLS MT
0744 PM MDT Mon Apr 23 2018

METAR K3U3 240143Z AUTO 34007KT 04/M03 A3040
METAR K38S 240144Z AUTO 01004KT 10SM 06/M04 A3043
METAR K6S5 240144Z AUTO 34000 10SM 09/M02 A3039
METAR K1S3 240143Z AUTO 24005KT 01/01 A3042
METAR KPWD 240143Z AUTO 36005KT 10SM 08/M04 A3034
METAR KPO1 240143Z AUTO 04003KT  10SM 09/M06 A3036



USA.gov is the U.S. government's official web portal to all federal, state and local government web resources and services.